sensor_id;sensor_type;location;lat;lon;timestamp;temperature;humidity
44190;DHT22;29856;52.144;5.430;2023-02-14T00:01:52;7.30;99.90
44190;DHT22;29856;52.144;5.430;2023-02-14T00:04:18;7.40;99.90
44190;DHT22;29856;52.144;5.430;2023-02-14T00:06:43;7.40;99.90
44190;DHT22;29856;52.144;5.430;2023-02-14T00:09:15;7.50;99.90
44190;DHT22;29856;52.144;5.430;2023-02-14T00:11:41;7.80;99.90
44190;DHT22;29856;52.144;5.430;2023-02-14T00:14:07;7.60;99.90
44190;DHT22;29856;52.144;5.430;2023-02-14T00:16:32;7.70;99.90
44190;DHT22;29856;52.144;5.430;2023-02-14T00:18:59;7.70;99.90
44190;DHT22;29856;52.144;5.430;2023-02-14T00:21:24;7.50;99.90
44190;DHT22;29856;52.144;5.430;2023-02-14T00:23:50;7.00;99.90
44190;DHT22;29856;52.144;5.430;2023-02-14T00:26:15;7.00;99.90
44190;DHT22;29856;52.144;5.430;2023-02-14T00:28:42;7.00;99.90
44190;DHT22;29856;52.144;5.430;2023-02-14T00:31:07;7.10;99.90
44190;DHT22;29856;52.144;5.430;2023-02-14T00:33:33;7.20;99.90
44190;DHT22;29856;52.144;5.430;2023-02-14T00:36:02;7.30;99.90
44190;DHT22;29856;52.144;5.430;2023-02-14T00:38:29;7.40;99.90
44190;DHT22;29856;52.144;5.430;2023-02-14T00:40:55;7.10;99.90
44190;DHT22;29856;52.144;5.430;2023-02-14T00:43:20;6.60;99.90
44190;DHT22;29856;52.144;5.430;2023-02-14T00:45:46;6.20;99.90
44190;DHT22;29856;52.144;5.430;2023-02-14T00:48:11;5.90;99.90
44190;DHT22;29856;52.144;5.430;2023-02-14T00:50:37;5.80;99.90
44190;DHT22;29856;52.144;5.430;2023-02-14T00:53:02;5.70;99.90
44190;DHT22;29856;52.144;5.430;2023-02-14T00:55:28;5.40;99.90
44190;DHT22;29856;52.144;5.430;2023-02-14T00:57:54;5.80;99.90
44190;DHT22;29856;52.144;5.430;2023-02-14T01:00:19;6.00;99.90
44190;DHT22;29856;52.144;5.430;2023-02-14T01:02:45;5.80;99.90
44190;DHT22;29856;52.144;5.430;2023-02-14T01:05:11;6.00;99.90
44190;DHT22;29856;52.144;5.430;2023-02-14T01:07:36;6.40;99.90
44190;DHT22;29856;52.144;5.430;2023-02-14T01:10:02;6.60;99.90
44190;DHT22;29856;52.144;5.430;2023-02-14T01:12:28;6.80;99.90
44190;DHT22;29856;52.144;5.430;2023-02-14T01:14:53;6.90;99.90
44190;DHT22;29856;52.144;5.430;2023-02-14T01:17:19;6.80;99.90
44190;DHT22;29856;52.144;5.430;2023-02-14T01:19:44;6.50;99.90
44190;DHT22;29856;52.144;5.430;2023-02-14T01:22:09;6.40;99.90
44190;DHT22;29856;52.144;5.430;2023-02-14T01:24:35;6.20;99.90
44190;DHT22;29856;52.144;5.430;2023-02-14T01:27:00;6.20;99.90
44190;DHT22;29856;52.144;5.430;2023-02-14T01:29:26;6.30;99.90
44190;DHT22;29856;52.144;5.430;2023-02-14T01:31:52;6.20;99.90
44190;DHT22;29856;52.144;5.430;2023-02-14T01:34:17;6.10;99.90
44190;DHT22;29856;52.144;5.430;2023-02-14T01:36:42;6.70;99.90
44190;DHT22;29856;52.144;5.430;2023-02-14T01:39:13;6.70;99.90
44190;DHT22;29856;52.144;5.430;2023-02-14T01:41:39;6.90;99.90
44190;DHT22;29856;52.144;5.430;2023-02-14T01:46:42;6.90;99.90
44190;DHT22;29856;52.144;5.430;2023-02-14T01:49:20;6.90;99.90
44190;DHT22;29856;52.144;5.430;2023-02-14T01:51:59;7.10;99.90
44190;DHT22;29856;52.144;5.430;2023-02-14T01:54:26;7.20;99.90
44190;DHT22;29856;52.144;5.430;2023-02-14T01:56:56;7.20;99.90
44190;DHT22;29856;52.144;5.430;2023-02-14T01:59:26;7.10;99.90
44190;DHT22;29856;52.144;5.430;2023-02-14T02:01:52;7.10;99.90
44190;DHT22;29856;52.144;5.430;2023-02-14T02:04:24;7.00;99.90
44190;DHT22;29856;52.144;5.430;2023-02-14T02:06:56;6.80;99.90
44190;DHT22;29856;52.144;5.430;2023-02-14T02:09:45;6.80;99.90
44190;DHT22;29856;52.144;5.430;2023-02-14T02:12:12;6.80;99.90
44190;DHT22;29856;52.144;5.430;2023-02-14T02:14:38;6.80;99.90
44190;DHT22;29856;52.144;5.430;2023-02-14T02:18:08;6.70;99.90
44190;DHT22;29856;52.144;5.430;2023-02-14T02:25:57;6.70;99.90
44190;DHT22;29856;52.144;5.430;2023-02-14T02:45:27;6.80;99.90
44190;DHT22;29856;52.144;5.430;2023-02-14T02:48:08;6.70;99.90
44190;DHT22;29856;52.144;5.430;2023-02-14T02:50:42;6.80;99.90
44190;DHT22;29856;52.144;5.430;2023-02-14T02:56:13;6.60;99.90
44190;DHT22;29856;52.144;5.430;2023-02-14T02:59:05;6.80;99.90
44190;DHT22;29856;52.144;5.430;2023-02-14T03:01:33;6.80;99.90
44190;DHT22;29856;52.144;5.430;2023-02-14T03:04:02;6.90;99.90
44190;DHT22;29856;52.144;5.430;2023-02-14T03:06:30;6.80;99.90
44190;DHT22;29856;52.144;5.430;2023-02-14T03:08:55;6.70;99.90
44190;DHT22;29856;52.144;5.430;2023-02-14T03:11:21;6.50;99.90
44190;DHT22;29856;52.144;5.430;2023-02-14T03:14:55;6.60;99.90
44190;DHT22;29856;52.144;5.430;2023-02-14T03:17:13;6.80;99.90
44190;DHT22;29856;52.144;5.430;2023-02-14T03:20:04;6.90;99.90
44190;DHT22;29856;52.144;5.430;2023-02-14T03:22:47;6.70;99.90
44190;DHT22;29856;52.144;5.430;2023-02-14T03:25:35;6.70;99.90
44190;DHT22;29856;52.144;5.430;2023-02-14T03:28:12;6.70;99.90
44190;DHT22;29856;52.144;5.430;2023-02-14T03:33:40;6.60;99.90
44190;DHT22;29856;52.144;5.430;2023-02-14T03:36:23;6.60;99.90
44190;DHT22;29856;52.144;5.430;2023-02-14T03:39:08;6.40;99.90
44190;DHT22;29856;52.144;5.430;2023-02-14T03:41:52;6.60;99.90
44190;DHT22;29856;52.144;5.430;2023-02-14T03:44:21;6.70;99.90
44190;DHT22;29856;52.144;5.430;2023-02-14T03:46:52;6.40;99.90
44190;DHT22;29856;52.144;5.430;2023-02-14T03:49:23;6.50;99.90
44190;DHT22;29856;52.144;5.430;2023-02-14T03:51:52;6.60;99.90
44190;DHT22;29856;52.144;5.430;2023-02-14T03:54:19;6.30;99.90
44190;DHT22;29856;52.144;5.430;2023-02-14T03:56:51;6.40;99.90
44190;DHT22;29856;52.144;5.430;2023-02-14T03:59:24;6.30;99.90
44190;DHT22;29856;52.144;5.430;2023-02-14T04:02:07;6.40;99.90
44190;DHT22;29856;52.144;5.430;2023-02-14T04:04:39;6.50;99.90
44190;DHT22;29856;52.144;5.430;2023-02-14T04:07:20;6.60;99.90
44190;DHT22;29856;52.144;5.430;2023-02-14T04:09:46;6.60;99.90
44190;DHT22;29856;52.144;5.430;2023-02-14T04:12:13;6.60;99.90
44190;DHT22;29856;52.144;5.430;2023-02-14T04:14:39;6.60;99.90
44190;DHT22;29856;52.144;5.430;2023-02-14T04:17:04;6.50;99.90
44190;DHT22;29856;52.144;5.430;2023-02-14T04:19:30;6.40;99.90
44190;DHT22;29856;52.144;5.430;2023-02-14T04:21:55;6.30;99.90
44190;DHT22;29856;52.144;5.430;2023-02-14T04:24:21;6.20;99.90
44190;DHT22;29856;52.144;5.430;2023-02-14T04:26:46;6.00;99.90
44190;DHT22;29856;52.144;5.430;2023-02-14T04:29:12;6.10;99.90
44190;DHT22;29856;52.144;5.430;2023-02-14T04:31:37;6.30;99.90
44190;DHT22;29856;52.144;5.430;2023-02-14T04:34:03;6.40;99.90
44190;DHT22;29856;52.144;5.430;2023-02-14T04:36:28;6.50;99.90
44190;DHT22;29856;52.144;5.430;2023-02-14T04:38:53;6.40;99.90
44190;DHT22;29856;52.144;5.430;2023-02-14T04:41:19;6.40;99.90
44190;DHT22;29856;52.144;5.430;2023-02-14T04:43:44;6.30;99.90
44190;DHT22;29856;52.144;5.430;2023-02-14T04:46:10;6.30;99.90
44190;DHT22;29856;52.144;5.430;2023-02-14T04:48:35;6.30;99.90
44190;DHT22;29856;52.144;5.430;2023-02-14T04:51:01;6.40;99.90
44190;DHT22;29856;52.144;5.430;2023-02-14T04:53:26;6.20;99.90
44190;DHT22;29856;52.144;5.430;2023-02-14T04:55:52;6.40;99.90
44190;DHT22;29856;52.144;5.430;2023-02-14T04:58:17;6.30;99.90
44190;DHT22;29856;52.144;5.430;2023-02-14T05:00:43;6.20;99.90
44190;DHT22;29856;52.144;5.430;2023-02-14T05:03:08;5.90;99.90
44190;DHT22;29856;52.144;5.430;2023-02-14T05:05:33;5.80;99.90
44190;DHT22;29856;52.144;5.430;2023-02-14T05:07:59;5.90;99.90
44190;DHT22;29856;52.144;5.430;2023-02-14T05:10:24;5.90;99.90
44190;DHT22;29856;52.144;5.430;2023-02-14T05:12:50;6.00;99.90
44190;DHT22;29856;52.144;5.430;2023-02-14T05:15:15;5.80;99.90
44190;DHT22;29856;52.144;5.430;2023-02-14T05:17:41;5.70;99.90
44190;DHT22;29856;52.144;5.430;2023-02-14T05:20:08;5.90;99.90
44190;DHT22;29856;52.144;5.430;2023-02-14T05:22:33;6.10;99.90
44190;DHT22;29856;52.144;5.430;2023-02-14T05:24:59;6.20;99.90
44190;DHT22;29856;52.144;5.430;2023-02-14T05:27:24;6.40;99.90
44190;DHT22;29856;52.144;5.430;2023-02-14T05:29:50;6.30;99.90
44190;DHT22;29856;52.144;5.430;2023-02-14T05:32:15;6.30;99.90
44190;DHT22;29856;52.144;5.430;2023-02-14T05:34:41;6.30;99.90
44190;DHT22;29856;52.144;5.430;2023-02-14T05:37:06;6.10;99.90
44190;DHT22;29856;52.144;5.430;2023-02-14T05:39:32;6.00;99.90
44190;DHT22;29856;52.144;5.430;2023-02-14T05:42:00;6.00;99.90
44190;DHT22;29856;52.144;5.430;2023-02-14T05:44:25;6.00;99.90
44190;DHT22;29856;52.144;5.430;2023-02-14T05:46:51;6.20;99.90
44190;DHT22;29856;52.144;5.430;2023-02-14T05:49:16;6.00;99.90
44190;DHT22;29856;52.144;5.430;2023-02-14T05:51:42;6.10;99.90
44190;DHT22;29856;52.144;5.430;2023-02-14T05:54:07;6.20;99.90
44190;DHT22;29856;52.144;5.430;2023-02-14T05:56:32;5.90;99.90
44190;DHT22;29856;52.144;5.430;2023-02-14T05:58:58;5.90;99.90
44190;DHT22;29856;52.144;5.430;2023-02-14T06:01:23;5.30;99.90
44190;DHT22;29856;52.144;5.430;2023-02-14T06:03:49;4.80;99.90
44190;DHT22;29856;52.144;5.430;2023-02-14T06:06:14;4.60;99.90
44190;DHT22;29856;52.144;5.430;2023-02-14T06:08:40;4.50;99.90
44190;DHT22;29856;52.144;5.430;2023-02-14T06:11:05;4.80;99.90
44190;DHT22;29856;52.144;5.430;2023-02-14T06:13:31;5.00;99.90
44190;DHT22;29856;52.144;5.430;2023-02-14T06:15:56;4.70;99.90
44190;DHT22;29856;52.144;5.430;2023-02-14T06:18:22;5.00;99.90
44190;DHT22;29856;52.144;5.430;2023-02-14T06:20:47;4.60;99.90
44190;DHT22;29856;52.144;5.430;2023-02-14T06:23:13;4.30;99.90
44190;DHT22;29856;52.144;5.430;2023-02-14T06:25:38;4.80;99.90
44190;DHT22;29856;52.144;5.430;2023-02-14T06:28:03;4.90;99.90
44190;DHT22;29856;52.144;5.430;2023-02-14T06:30:29;5.00;99.90
44190;DHT22;29856;52.144;5.430;2023-02-14T06:32:54;5.20;99.90
44190;DHT22;29856;52.144;5.430;2023-02-14T06:35:20;5.10;99.90
44190;DHT22;29856;52.144;5.430;2023-02-14T06:37:45;4.70;99.90
44190;DHT22;29856;52.144;5.430;2023-02-14T06:40:12;4.50;99.90
44190;DHT22;29856;52.144;5.430;2023-02-14T06:42:38;4.90;99.90
44190;DHT22;29856;52.144;5.430;2023-02-14T06:45:04;5.20;99.90
44190;DHT22;29856;52.144;5.430;2023-02-14T06:47:29;5.30;99.90
44190;DHT22;29856;52.144;5.430;2023-02-14T06:49:55;5.40;99.90
44190;DHT22;29856;52.144;5.430;2023-02-14T06:52:20;5.50;99.90
44190;DHT22;29856;52.144;5.430;2023-02-14T06:54:46;5.60;99.90
44190;DHT22;29856;52.144;5.430;2023-02-14T06:57:11;5.60;99.90
44190;DHT22;29856;52.144;5.430;2023-02-14T06:59:37;5.60;99.90
44190;DHT22;29856;52.144;5.430;2023-02-14T07:02:02;5.50;99.90
44190;DHT22;29856;52.144;5.430;2023-02-14T07:04:28;5.50;99.90
44190;DHT22;29856;52.144;5.430;2023-02-14T07:06:53;5.40;99.90
44190;DHT22;29856;52.144;5.430;2023-02-14T07:09:19;5.50;99.90
44190;DHT22;29856;52.144;5.430;2023-02-14T07:11:45;5.70;99.90
44190;DHT22;29856;52.144;5.430;2023-02-14T07:14:10;5.70;99.90
44190;DHT22;29856;52.144;5.430;2023-02-14T07:16:36;5.70;99.90
44190;DHT22;29856;52.144;5.430;2023-02-14T07:19:01;5.60;99.90
44190;DHT22;29856;52.144;5.430;2023-02-14T07:21:27;5.60;99.90
44190;DHT22;29856;52.144;5.430;2023-02-14T07:23:52;5.40;99.90
44190;DHT22;29856;52.144;5.430;2023-02-14T07:26:18;5.00;99.90
44190;DHT22;29856;52.144;5.430;2023-02-14T07:28:47;4.70;99.90
44190;DHT22;29856;52.144;5.430;2023-02-14T07:31:12;4.50;99.90
44190;DHT22;29856;52.144;5.430;2023-02-14T07:33:38;4.30;99.90
44190;DHT22;29856;52.144;5.430;2023-02-14T07:36:05;4.00;99.90
44190;DHT22;29856;52.144;5.430;2023-02-14T07:38:30;3.90;99.90
44190;DHT22;29856;52.144;5.430;2023-02-14T07:40:56;3.70;99.90
44190;DHT22;29856;52.144;5.430;2023-02-14T07:43:21;3.60;99.90
44190;DHT22;29856;52.144;5.430;2023-02-14T07:45:47;3.50;99.90
44190;DHT22;29856;52.144;5.430;2023-02-14T07:48:12;4.10;99.90
44190;DHT22;29856;52.144;5.430;2023-02-14T07:50:38;4.30;99.90
44190;DHT22;29856;52.144;5.430;2023-02-14T07:53:03;4.60;99.90
44190;DHT22;29856;52.144;5.430;2023-02-14T07:55:29;4.70;99.90
44190;DHT22;29856;52.144;5.430;2023-02-14T07:57:54;5.00;99.90
44190;DHT22;29856;52.144;5.430;2023-02-14T08:00:20;5.30;99.90
44190;DHT22;29856;52.144;5.430;2023-02-14T08:02:45;5.00;99.90
44190;DHT22;29856;52.144;5.430;2023-02-14T08:05:11;4.60;99.90
44190;DHT22;29856;52.144;5.430;2023-02-14T08:07:36;4.80;99.90
44190;DHT22;29856;52.144;5.430;2023-02-14T08:10:02;4.90;99.90
44190;DHT22;29856;52.144;5.430;2023-02-14T08:12:28;4.90;99.90
44190;DHT22;29856;52.144;5.430;2023-02-14T08:14:53;5.00;99.90
44190;DHT22;29856;52.144;5.430;2023-02-14T08:17:19;4.80;99.90
44190;DHT22;29856;52.144;5.430;2023-02-14T08:19:44;4.60;99.90
44190;DHT22;29856;52.144;5.430;2023-02-14T08:22:10;4.40;99.90
44190;DHT22;29856;52.144;5.430;2023-02-14T08:24:35;4.30;99.90
44190;DHT22;29856;52.144;5.430;2023-02-14T08:27:01;4.30;99.90
44190;DHT22;29856;52.144;5.430;2023-02-14T08:29:26;4.70;99.90
44190;DHT22;29856;52.144;5.430;2023-02-14T08:31:52;4.70;99.90
44190;DHT22;29856;52.144;5.430;2023-02-14T08:34:18;4.60;99.90
44190;DHT22;29856;52.144;5.430;2023-02-14T08:36:43;4.60;99.90
44190;DHT22;29856;52.144;5.430;2023-02-14T08:39:09;4.60;99.90
44190;DHT22;29856;52.144;5.430;2023-02-14T08:41:35;4.80;99.90
44190;DHT22;29856;52.144;5.430;2023-02-14T08:44:01;4.80;99.90
44190;DHT22;29856;52.144;5.430;2023-02-14T08:46:26;5.00;99.90
44190;DHT22;29856;52.144;5.430;2023-02-14T08:48:52;5.20;99.90
44190;DHT22;29856;52.144;5.430;2023-02-14T08:51:18;5.70;99.90
44190;DHT22;29856;52.144;5.430;2023-02-14T08:53:43;5.70;99.90
44190;DHT22;29856;52.144;5.430;2023-02-14T08:56:11;5.80;99.90
44190;DHT22;29856;52.144;5.430;2023-02-14T08:58:37;6.10;99.90
44190;DHT22;29856;52.144;5.430;2023-02-14T09:01:14;6.20;99.90
44190;DHT22;29856;52.144;5.430;2023-02-14T09:03:40;6.40;99.90
44190;DHT22;29856;52.144;5.430;2023-02-14T09:06:08;6.40;99.90
44190;DHT22;29856;52.144;5.430;2023-02-14T09:08:35;6.50;99.90
44190;DHT22;29856;52.144;5.430;2023-02-14T09:11:16;6.60;99.90
44190;DHT22;29856;52.144;5.430;2023-02-14T09:13:41;6.60;99.90
44190;DHT22;29856;52.144;5.430;2023-02-14T09:16:09;6.70;99.90
44190;DHT22;29856;52.144;5.430;2023-02-14T09:18:35;6.70;99.90
44190;DHT22;29856;52.144;5.430;2023-02-14T09:21:01;6.80;99.90
44190;DHT22;29856;52.144;5.430;2023-02-14T09:23:26;6.80;99.90
44190;DHT22;29856;52.144;5.430;2023-02-14T09:26:00;6.90;99.90
44190;DHT22;29856;52.144;5.430;2023-02-14T09:28:25;7.00;99.90
44190;DHT22;29856;52.144;5.430;2023-02-14T09:30:51;7.00;99.90
44190;DHT22;29856;52.144;5.430;2023-02-14T09:33:17;7.20;99.90
44190;DHT22;29856;52.144;5.430;2023-02-14T09:35:43;7.30;99.90
44190;DHT22;29856;52.144;5.430;2023-02-14T09:38:09;7.30;99.90
44190;DHT22;29856;52.144;5.430;2023-02-14T09:40:35;7.40;99.90
44190;DHT22;29856;52.144;5.430;2023-02-14T09:43:22;7.60;99.90
44190;DHT22;29856;52.144;5.430;2023-02-14T09:45:53;7.70;99.90
44190;DHT22;29856;52.144;5.430;2023-02-14T09:48:36;7.70;99.90
44190;DHT22;29856;52.144;5.430;2023-02-14T09:51:10;7.90;99.90
44190;DHT22;29856;52.144;5.430;2023-02-14T09:53:48;8.10;99.90
44190;DHT22;29856;52.144;5.430;2023-02-14T09:59:01;8.30;99.90
44190;DHT22;29856;52.144;5.430;2023-02-14T10:01:36;8.30;99.90
44190;DHT22;29856;52.144;5.430;2023-02-14T10:04:30;8.50;99.90
44190;DHT22;29856;52.144;5.430;2023-02-14T10:07:17;8.70;99.90
44190;DHT22;29856;52.144;5.430;2023-02-14T10:09:56;8.70;99.90
44190;DHT22;29856;52.144;5.430;2023-02-14T10:12:39;8.70;99.90
44190;DHT22;29856;52.144;5.430;2023-02-14T10:15:30;8.80;99.90
44190;DHT22;29856;52.144;5.430;2023-02-14T10:18:05;8.90;99.90
44190;DHT22;29856;52.144;5.430;2023-02-14T10:20:47;9.00;99.90
44190;DHT22;29856;52.144;5.430;2023-02-14T10:23:35;9.20;99.90
44190;DHT22;29856;52.144;5.430;2023-02-14T10:26:15;9.50;99.90
44190;DHT22;29856;52.144;5.430;2023-02-14T10:28:42;9.50;99.90
44190;DHT22;29856;52.144;5.430;2023-02-14T10:41:51;9.70;99.90
44190;DHT22;29856;52.144;5.430;2023-02-14T10:46:58;9.90;99.90
44190;DHT22;29856;52.144;5.430;2023-02-14T10:49:30;10.10;99.90
44190;DHT22;29856;52.144;5.430;2023-02-14T10:52:28;10.20;99.90
44190;DHT22;29856;52.144;5.430;2023-02-14T10:54:59;10.20;99.90
44190;DHT22;29856;52.144;5.430;2023-02-14T10:57:27;10.40;99.90
44190;DHT22;29856;52.144;5.430;2023-02-14T11:00:00;10.40;99.90
44190;DHT22;29856;52.144;5.430;2023-02-14T11:02:32;10.50;99.90
44190;DHT22;29856;52.144;5.430;2023-02-14T11:05:00;10.50;99.90
44190;DHT22;29856;52.144;5.430;2023-02-14T11:07:26;10.60;99.90
44190;DHT22;29856;52.144;5.430;2023-02-14T11:09:52;10.80;99.90
44190;DHT22;29856;52.144;5.430;2023-02-14T11:12:43;10.80;99.90
44190;DHT22;29856;52.144;5.430;2023-02-14T11:15:31;11.00;99.90
44190;DHT22;29856;52.144;5.430;2023-02-14T11:18:22;11.00;99.90
44190;DHT22;29856;52.144;5.430;2023-02-14T11:21:00;11.10;99.90
44190;DHT22;29856;52.144;5.430;2023-02-14T11:23:26;11.20;99.90
44190;DHT22;29856;52.144;5.430;2023-02-14T11:25:56;11.20;99.90
44190;DHT22;29856;52.144;5.430;2023-02-14T11:28:22;11.30;99.90
44190;DHT22;29856;52.144;5.430;2023-02-14T11:30:49;11.40;99.90
44190;DHT22;29856;52.144;5.430;2023-02-14T11:33:28;11.40;99.90
44190;DHT22;29856;52.144;5.430;2023-02-14T11:35:56;11.50;99.90
44190;DHT22;29856;52.144;5.430;2023-02-14T11:38:29;11.50;99.90
44190;DHT22;29856;52.144;5.430;2023-02-14T11:40:56;11.60;99.90
44190;DHT22;29856;52.144;5.430;2023-02-14T11:43:37;11.60;99.90
44190;DHT22;29856;52.144;5.430;2023-02-14T11:49:02;11.70;99.90
44190;DHT22;29856;52.144;5.430;2023-02-14T11:51:41;11.80;99.90
44190;DHT22;29856;52.144;5.430;2023-02-14T11:54:22;11.90;99.90
44190;DHT22;29856;52.144;5.430;2023-02-14T11:57:07;12.00;99.90
44190;DHT22;29856;52.144;5.430;2023-02-14T11:59:43;12.00;99.90
44190;DHT22;29856;52.144;5.430;2023-02-14T12:04:40;12.20;99.90
44190;DHT22;29856;52.144;5.430;2023-02-14T12:07:26;12.30;99.90
44190;DHT22;29856;52.144;5.430;2023-02-14T12:12:31;12.40;99.90
44190;DHT22;29856;52.144;5.430;2023-02-14T12:20:52;12.60;99.90
44190;DHT22;29856;52.144;5.430;2023-02-14T12:23:27;12.60;99.90
44190;DHT22;29856;52.144;5.430;2023-02-14T12:26:08;12.70;99.90
44190;DHT22;29856;52.144;5.430;2023-02-14T12:28:40;12.80;99.90
44190;DHT22;29856;52.144;5.430;2023-02-14T12:31:11;12.90;99.90
44190;DHT22;29856;52.144;5.430;2023-02-14T12:33:37;12.80;99.90
44190;DHT22;29856;52.144;5.430;2023-02-14T12:45:03;13.00;99.90
44190;DHT22;29856;52.144;5.430;2023-02-14T12:56:29;13.20;99.90
44190;DHT22;29856;52.144;5.430;2023-02-14T13:02:01;13.40;99.90
44190;DHT22;29856;52.144;5.430;2023-02-14T13:13:39;13.60;99.90
44190;DHT22;29856;52.144;5.430;2023-02-14T13:19:03;13.80;99.90
44190;DHT22;29856;52.144;5.430;2023-02-14T13:21:33;13.80;99.90
44190;DHT22;29856;52.144;5.430;2023-02-14T13:26:38;14.00;99.90
44190;DHT22;29856;52.144;5.430;2023-02-14T13:29:09;14.00;99.90
44190;DHT22;29856;52.144;5.430;2023-02-14T13:31:35;14.10;99.90
44190;DHT22;29856;52.144;5.430;2023-02-14T13:36:45;14.00;99.90
44190;DHT22;29856;52.144;5.430;2023-02-14T13:42:11;14.30;99.90
44190;DHT22;29856;52.144;5.430;2023-02-14T13:44:49;14.20;99.90
44190;DHT22;29856;52.144;5.430;2023-02-14T13:47:22;14.30;99.90
44190;DHT22;29856;52.144;5.430;2023-02-14T13:49:52;14.20;99.90
44190;DHT22;29856;52.144;5.430;2023-02-14T13:52:57;14.30;99.90
44190;DHT22;29856;52.144;5.430;2023-02-14T13:55:26;14.20;99.90
44190;DHT22;29856;52.144;5.430;2023-02-14T13:58:12;14.20;99.90
44190;DHT22;29856;52.144;5.430;2023-02-14T14:03:11;14.20;99.90
44190;DHT22;29856;52.144;5.430;2023-02-14T14:05:52;14.20;99.90
44190;DHT22;29856;52.144;5.430;2023-02-14T14:10:49;14.30;99.90
44190;DHT22;29856;52.144;5.430;2023-02-14T14:18:50;14.40;99.90
44190;DHT22;29856;52.144;5.430;2023-02-14T14:21:23;14.40;99.90
44190;DHT22;29856;52.144;5.430;2023-02-14T14:26:46;14.40;99.90
44190;DHT22;29856;52.144;5.430;2023-02-14T14:31:50;14.50;99.90
44190;DHT22;29856;52.144;5.430;2023-02-14T14:34:18;14.50;99.90
44190;DHT22;29856;52.144;5.430;2023-02-14T14:36:44;14.60;99.90
44190;DHT22;29856;52.144;5.430;2023-02-14T14:39:10;14.70;99.90
44190;DHT22;29856;52.144;5.430;2023-02-14T14:41:38;14.80;99.90
44190;DHT22;29856;52.144;5.430;2023-02-14T14:44:04;14.90;99.90
44190;DHT22;29856;52.144;5.430;2023-02-14T14:46:30;15.00;99.90
44190;DHT22;29856;52.144;5.430;2023-02-14T14:48:56;15.00;99.90
44190;DHT22;29856;52.144;5.430;2023-02-14T14:54:04;14.90;99.90
44190;DHT22;29856;52.144;5.430;2023-02-14T14:56:33;14.80;99.90
44190;DHT22;29856;52.144;5.430;2023-02-14T15:01:47;14.80;99.90
44190;DHT22;29856;52.144;5.430;2023-02-14T15:06:40;14.80;99.90
44190;DHT22;29856;52.144;5.430;2023-02-14T15:09:18;14.90;99.90
44190;DHT22;29856;52.144;5.430;2023-02-14T15:11:45;15.00;99.90
44190;DHT22;29856;52.144;5.430;2023-02-14T15:14:16;14.90;99.90
44190;DHT22;29856;52.144;5.430;2023-02-14T15:16:50;14.90;99.90
44190;DHT22;29856;52.144;5.430;2023-02-14T15:19:35;15.00;99.90
44190;DHT22;29856;52.144;5.430;2023-02-14T15:22:13;15.00;99.90
44190;DHT22;29856;52.144;5.430;2023-02-14T15:24:41;15.00;99.90
44190;DHT22;29856;52.144;5.430;2023-02-14T15:27:17;15.20;99.90
44190;DHT22;29856;52.144;5.430;2023-02-14T15:30:06;15.20;99.90
44190;DHT22;29856;52.144;5.430;2023-02-14T15:32:34;15.20;99.90
44190;DHT22;29856;52.144;5.430;2023-02-14T15:35:04;15.30;99.90
44190;DHT22;29856;52.144;5.430;2023-02-14T15:37:30;15.30;99.90
44190;DHT22;29856;52.144;5.430;2023-02-14T15:39:57;15.20;99.90
44190;DHT22;29856;52.144;5.430;2023-02-14T15:42:31;15.40;99.90
44190;DHT22;29856;52.144;5.430;2023-02-14T15:45:28;15.40;99.90
44190;DHT22;29856;52.144;5.430;2023-02-14T15:50:32;15.30;99.90
44190;DHT22;29856;52.144;5.430;2023-02-14T15:55:51;15.20;99.90
44190;DHT22;29856;52.144;5.430;2023-02-14T15:58:26;15.10;99.90
44190;DHT22;29856;52.144;5.430;2023-02-14T16:00:53;14.90;99.90
44190;DHT22;29856;52.144;5.430;2023-02-14T16:03:22;14.90;99.90
44190;DHT22;29856;52.144;5.430;2023-02-14T16:05:49;14.80;99.90
44190;DHT22;29856;52.144;5.430;2023-02-14T16:08:35;14.90;99.90
44190;DHT22;29856;52.144;5.430;2023-02-14T16:11:31;14.80;99.90
44190;DHT22;29856;52.144;5.430;2023-02-14T16:13:57;14.60;99.90
44190;DHT22;29856;52.144;5.430;2023-02-14T16:16:23;14.50;99.90
44190;DHT22;29856;52.144;5.430;2023-02-14T16:18:51;14.40;99.90
44190;DHT22;29856;52.144;5.430;2023-02-14T16:21:26;14.30;99.90
44190;DHT22;29856;52.144;5.430;2023-02-14T16:26:34;13.90;99.90
44190;DHT22;29856;52.144;5.430;2023-02-14T16:29:03;13.70;99.90
44190;DHT22;29856;52.144;5.430;2023-02-14T16:31:30;13.50;99.90
44190;DHT22;29856;52.144;5.430;2023-02-14T16:33:59;13.40;99.90
44190;DHT22;29856;52.144;5.430;2023-02-14T16:36:29;13.30;99.90
44190;DHT22;29856;52.144;5.430;2023-02-14T16:38:56;13.20;99.90
44190;DHT22;29856;52.144;5.430;2023-02-14T16:41:24;13.10;99.90
44190;DHT22;29856;52.144;5.430;2023-02-14T16:43:51;13.10;99.90
44190;DHT22;29856;52.144;5.430;2023-02-14T16:46:34;13.00;99.90
44190;DHT22;29856;52.144;5.430;2023-02-14T16:48:59;12.90;99.90
44190;DHT22;29856;52.144;5.430;2023-02-14T16:51:27;12.90;99.90
44190;DHT22;29856;52.144;5.430;2023-02-14T16:54:07;12.70;99.90
44190;DHT22;29856;52.144;5.430;2023-02-14T16:56:40;12.70;99.90
44190;DHT22;29856;52.144;5.430;2023-02-14T16:59:07;12.70;99.90
44190;DHT22;29856;52.144;5.430;2023-02-14T17:01:32;12.70;99.90
44190;DHT22;29856;52.144;5.430;2023-02-14T17:03:58;12.60;99.90
44190;DHT22;29856;52.144;5.430;2023-02-14T17:06:25;12.50;99.90
44190;DHT22;29856;52.144;5.430;2023-02-14T17:08:52;12.50;99.90
44190;DHT22;29856;52.144;5.430;2023-02-14T17:11:19;12.30;99.90
44190;DHT22;29856;52.144;5.430;2023-02-14T17:13:46;12.30;99.90
44190;DHT22;29856;52.144;5.430;2023-02-14T17:16:12;12.40;99.90
44190;DHT22;29856;52.144;5.430;2023-02-14T17:18:39;12.60;99.90
44190;DHT22;29856;52.144;5.430;2023-02-14T17:21:04;12.70;99.90
44190;DHT22;29856;52.144;5.430;2023-02-14T17:23:30;12.80;99.90
44190;DHT22;29856;52.144;5.430;2023-02-14T17:25:55;12.80;99.90
44190;DHT22;29856;52.144;5.430;2023-02-14T17:28:21;12.60;99.90
44190;DHT22;29856;52.144;5.430;2023-02-14T17:30:46;12.50;99.90
44190;DHT22;29856;52.144;5.430;2023-02-14T17:33:12;12.40;99.90
44190;DHT22;29856;52.144;5.430;2023-02-14T17:35:37;12.60;99.90
44190;DHT22;29856;52.144;5.430;2023-02-14T17:38:03;12.70;99.90
44190;DHT22;29856;52.144;5.430;2023-02-14T17:40:29;12.70;99.90
44190;DHT22;29856;52.144;5.430;2023-02-14T17:42:55;12.70;99.90
44190;DHT22;29856;52.144;5.430;2023-02-14T17:45:21;12.70;99.90
44190;DHT22;29856;52.144;5.430;2023-02-14T17:47:46;12.30;99.90
44190;DHT22;29856;52.144;5.430;2023-02-14T17:50:12;12.00;99.90
44190;DHT22;29856;52.144;5.430;2023-02-14T17:52:38;11.70;99.90
44190;DHT22;29856;52.144;5.430;2023-02-14T17:55:05;11.40;99.90
44190;DHT22;29856;52.144;5.430;2023-02-14T17:57:31;11.20;99.90
44190;DHT22;29856;52.144;5.430;2023-02-14T17:59:59;11.10;99.90
44190;DHT22;29856;52.144;5.430;2023-02-14T18:02:25;11.00;99.90
44190;DHT22;29856;52.144;5.430;2023-02-14T18:04:50;10.80;99.90
44190;DHT22;29856;52.144;5.430;2023-02-14T18:07:16;10.90;99.90
44190;DHT22;29856;52.144;5.430;2023-02-14T18:09:42;10.90;99.90